createdAt,value
2023-05-05T00:00:27.552Z,56
2023-05-05T00:00:51.328Z,13
2023-05-05T00:01:24.136Z,64
2023-05-05T00:01:46.688Z,42
2023-05-05T00:02:10.592Z,68
2023-05-05T00:02:44.126Z,70
2023-05-05T00:03:14.003Z,24
2023-05-05T00:03:50.501Z,65
2023-05-05T00:04:20.061Z,56
2023-05-05T00:04:42.620Z,76
2023-05-05T00:05:04.953Z,57
2023-05-05T00:05:40.066Z,13
2023-05-05T00:06:11.989Z,49
2023-05-05T00:06:43.843Z,80
2023-05-05T00:07:13.883Z,67
2023-05-05T00:07:48.425Z,62
2023-05-05T00:08:19.991Z,71
2023-05-05T00:08:43.687Z,41
2023-05-05T00:09:06.090Z,36
2023-05-05T00:09:40.069Z,35
2023-05-05T00:10:11.809Z,75
2023-05-05T00:10:44.108Z,53
2023-05-05T00:11:14.223Z,66
2023-05-05T00:11:47.823Z,91
2023-05-05T00:12:19.933Z,63
2023-05-05T00:12:42.687Z,43
2023-05-05T00:13:05.136Z,55
2023-05-05T00:13:40.150Z,66
2023-05-05T00:14:11.958Z,54
2023-05-05T00:14:45.540Z,47
2023-05-05T00:15:16.215Z,62
2023-05-05T00:15:47.882Z,47
2023-05-05T00:16:19.989Z,43
2023-05-05T00:16:43.015Z,24
2023-05-05T00:17:05.230Z,47
2023-05-05T00:17:40.414Z,47
2023-05-05T00:18:11.794Z,51
2023-05-05T00:18:45.422Z,62
2023-05-05T00:19:14.075Z,68
2023-05-05T00:19:47.934Z,67
2023-05-05T00:20:19.965Z,55
2023-05-05T00:20:42.619Z,76
2023-05-05T00:21:05.021Z,39
2023-05-05T00:21:39.976Z,59
2023-05-05T00:22:12.007Z,22
2023-05-05T00:22:43.950Z,49
2023-05-05T00:23:13.795Z,64
2023-05-05T00:23:47.979Z,80
2023-05-05T00:24:19.997Z,56
2023-05-05T00:24:42.860Z,75
2023-05-05T00:25:05.279Z,80
2023-05-05T00:25:40.097Z,45
2023-05-05T00:26:11.788Z,57
2023-05-05T00:26:44.035Z,43
2023-05-05T00:27:13.952Z,60
2023-05-05T00:27:47.808Z,73
2023-05-05T00:28:19.822Z,69
2023-05-05T00:28:42.917Z,28
2023-05-05T00:29:05.151Z,43
2023-05-05T00:29:40.001Z,45
2023-05-05T00:30:12.062Z,64
2023-05-05T00:30:44.076Z,57
2023-05-05T00:31:13.811Z,15
2023-05-05T00:31:47.892Z,70
2023-05-05T00:32:20.048Z,45
2023-05-05T00:32:42.846Z,35
2023-05-05T00:33:04.981Z,71
2023-05-05T00:33:40.254Z,66
2023-05-05T00:34:12.064Z,68
2023-05-05T00:34:43.785Z,65
2023-05-05T00:35:13.770Z,61
2023-05-05T00:35:47.893Z,74
2023-05-05T00:36:19.919Z,19
2023-05-05T00:36:42.582Z,45
2023-05-05T00:37:04.996Z,71
2023-05-05T00:37:40.177Z,53
2023-05-05T00:38:11.864Z,10
2023-05-05T00:38:43.886Z,36
2023-05-05T00:39:13.798Z,92
2023-05-05T00:39:47.926Z,36
2023-05-05T00:40:19.865Z,61
2023-05-05T00:40:42.597Z,62
2023-05-05T00:41:05.105Z,40
2023-05-05T00:41:45.506Z,70
2023-05-05T00:42:11.910Z,65
2023-05-05T00:42:44.025Z,79
2023-05-05T00:43:13.784Z,61
2023-05-05T00:43:48.136Z,58
2023-05-05T00:44:19.935Z,63
2023-05-05T00:44:49.964Z,47
2023-05-05T00:45:06.924Z,56
2023-05-05T00:45:39.891Z,65
2023-05-05T00:46:12.034Z,49
2023-05-05T00:46:43.853Z,64
2023-05-05T00:47:13.954Z,54
2023-05-05T00:47:47.938Z,65
2023-05-05T00:48:19.908Z,70
2023-05-05T00:48:43.111Z,47
2023-05-05T00:49:05.527Z,58
2023-05-05T00:49:40.003Z,56
2023-05-05T00:50:12.305Z,64
2023-05-05T00:50:43.911Z,57
2023-05-05T00:51:15.893Z,54
2023-05-05T00:51:47.838Z,66
2023-05-05T00:52:19.903Z,76
2023-05-05T00:52:42.635Z,77
2023-05-05T00:53:04.886Z,76
2023-05-05T00:53:39.872Z,54
2023-05-05T00:54:11.832Z,31
2023-05-05T00:54:43.913Z,51
2023-05-05T00:55:13.930Z,66
2023-05-05T00:55:47.754Z,64
2023-05-05T00:56:19.852Z,60
2023-05-05T00:56:42.675Z,68
2023-05-05T00:57:04.965Z,70
2023-05-05T00:57:40.081Z,47
2023-05-05T00:58:12.197Z,76
2023-05-05T00:58:43.930Z,57
2023-05-05T00:59:13.869Z,49
2023-05-05T00:59:47.902Z,69
2023-05-05T01:00:19.845Z,44
2023-05-05T01:00:43.113Z,65
2023-05-05T01:01:05.393Z,31
2023-05-05T01:01:39.887Z,21
2023-05-05T01:02:12.100Z,76
2023-05-05T01:02:43.911Z,63
2023-05-05T01:03:13.970Z,38
2023-05-05T01:04:20.568Z,26
2023-05-05T01:04:42.622Z,64
2023-05-05T01:05:04.948Z,61
2023-05-05T01:05:40.021Z,49
2023-05-05T01:06:11.991Z,82
2023-05-05T01:06:43.755Z,75
2023-05-05T01:07:13.797Z,67
2023-05-05T01:07:47.798Z,66
2023-05-05T01:08:19.845Z,23
2023-05-05T01:08:42.531Z,68
2023-05-05T01:09:04.990Z,45
2023-05-05T01:09:39.955Z,68
2023-05-05T01:10:20.252Z,58
2023-05-05T01:10:43.741Z,37
2023-05-05T01:11:13.835Z,56
2023-05-05T01:11:47.824Z,70
2023-05-05T01:12:19.868Z,45
2023-05-05T01:12:42.733Z,65
2023-05-05T01:13:05.365Z,40
2023-05-05T01:13:40.015Z,45
2023-05-05T01:14:11.950Z,69
2023-05-05T01:14:44.022Z,42
2023-05-05T01:15:14.036Z,60
2023-05-05T01:15:47.782Z,59
2023-05-05T01:16:19.874Z,81
2023-05-05T01:16:42.564Z,31
2023-05-05T01:17:04.835Z,64
2023-05-05T01:17:39.998Z,58
2023-05-05T01:18:11.861Z,62
2023-05-05T01:18:43.831Z,44
2023-05-05T01:19:21.244Z,45
2023-05-05T01:19:48.098Z,59
2023-05-05T01:20:19.824Z,62
2023-05-05T01:20:42.967Z,87
2023-05-05T01:21:05.485Z,77
2023-05-05T01:21:39.815Z,66
2023-05-05T01:22:11.909Z,49
2023-05-05T01:22:43.691Z,65
2023-05-05T01:23:13.827Z,61
2023-05-05T01:23:48.150Z,35
2023-05-05T01:24:19.834Z,68
2023-05-05T01:24:42.541Z,58
2023-05-05T01:25:05.056Z,64
2023-05-05T01:25:39.747Z,53
2023-05-05T01:26:11.815Z,49
2023-05-05T01:26:44.043Z,81
2023-05-05T01:27:13.844Z,66
2023-05-05T01:27:47.821Z,45
2023-05-05T01:28:19.835Z,35
2023-05-05T01:28:42.725Z,66
2023-05-05T01:29:05.108Z,81
2023-05-05T01:29:39.792Z,57
2023-05-05T01:30:12.114Z,66
2023-05-05T01:30:43.971Z,59
2023-05-05T01:31:13.837Z,55
2023-05-05T01:31:47.932Z,41
2023-05-05T01:32:19.705Z,44
2023-05-05T01:32:42.454Z,58
2023-05-05T01:33:04.726Z,40
2023-05-05T01:33:40.395Z,52
2023-05-05T01:34:11.817Z,68
2023-05-05T01:34:43.731Z,44
2023-05-05T01:35:13.801Z,56
2023-05-05T01:35:47.839Z,74
2023-05-05T01:36:19.737Z,64
2023-05-05T01:36:42.723Z,40
2023-05-05T01:37:05.489Z,67
2023-05-05T01:37:39.878Z,51
2023-05-05T01:38:11.840Z,54
2023-05-05T01:38:43.769Z,57
2023-05-05T01:39:13.898Z,61
2023-05-05T01:39:47.843Z,67
2023-05-05T01:40:19.899Z,57
2023-05-05T01:40:42.534Z,39
2023-05-05T01:41:04.899Z,63
2023-05-05T01:41:39.816Z,57
2023-05-05T01:42:11.818Z,38
2023-05-05T01:42:43.860Z,50
2023-05-05T01:43:13.922Z,47
2023-05-05T01:43:47.757Z,73
2023-05-05T01:44:19.824Z,49
2023-05-05T01:44:42.541Z,58
2023-05-05T01:45:05.014Z,61
2023-05-05T01:45:39.735Z,61
2023-05-05T01:46:11.843Z,60
2023-05-05T01:46:44.166Z,55
2023-05-05T01:47:14.094Z,40
2023-05-05T01:47:48.028Z,55
2023-05-05T01:48:19.795Z,69
2023-05-05T01:48:42.596Z,52
2023-05-05T01:49:04.893Z,70
2023-05-05T01:49:39.891Z,12
2023-05-05T01:50:11.875Z,52
2023-05-05T01:50:45.277Z,63
2023-05-05T01:51:16.050Z,51
2023-05-05T01:51:47.817Z,7
2023-05-05T01:52:19.720Z,71
2023-05-05T01:52:43.115Z,70
2023-05-05T01:53:05.090Z,35
2023-05-05T01:53:39.985Z,77
2023-05-05T01:54:11.801Z,70
2023-05-05T01:54:43.720Z,58
2023-05-05T01:55:15.885Z,42
2023-05-05T01:55:48.058Z,24
2023-05-05T01:56:35.880Z,72
2023-05-05T01:57:07.830Z,49
2023-05-05T01:57:39.871Z,68
2023-05-05T01:58:11.673Z,63
2023-05-05T01:58:49.670Z,66
2023-05-05T01:59:15.860Z,55
2023-05-05T01:59:48.293Z,62
2023-05-05T02:00:19.887Z,12
2023-05-05T02:00:42.872Z,70
2023-05-05T02:01:05.498Z,81
2023-05-05T02:01:40.028Z,63
2023-05-05T02:02:11.880Z,35
2023-05-05T02:02:43.952Z,55
2023-05-05T02:03:13.978Z,39
2023-05-05T02:03:42.710Z,75
2023-05-05T02:04:20.047Z,55
2023-05-05T02:04:42.655Z,15
2023-05-05T02:05:08.865Z,52
2023-05-05T02:05:41.951Z,61
2023-05-05T02:06:14.278Z,74
2023-05-05T02:06:44.962Z,59
2023-05-05T02:07:15.987Z,51
2023-05-05T02:07:47.802Z,55
2023-05-05T02:08:19.797Z,55
2023-05-05T02:08:42.511Z,44
2023-05-05T02:09:06.493Z,49
2023-05-05T02:09:39.851Z,65
2023-05-05T02:10:12.167Z,57
2023-05-05T02:10:43.895Z,41
2023-05-05T02:11:14.029Z,54
2023-05-05T02:11:47.658Z,69
2023-05-05T02:12:20.020Z,27
2023-05-05T02:12:42.759Z,55
2023-05-05T02:13:07.405Z,13
2023-05-05T02:13:41.030Z,69
2023-05-05T02:14:12.049Z,69
2023-05-05T02:14:47.402Z,53
2023-05-05T02:15:10.066Z,79
2023-05-05T02:15:48.156Z,49
2023-05-05T02:16:19.677Z,53
2023-05-05T02:16:42.392Z,49
2023-05-05T02:17:04.835Z,37
2023-05-05T02:17:39.942Z,69
2023-05-05T02:18:11.810Z,56
2023-05-05T02:18:43.809Z,48
2023-05-05T02:19:10.021Z,49
2023-05-05T02:19:49.066Z,61
2023-05-05T02:20:19.865Z,39
2023-05-05T02:20:42.595Z,55
2023-05-05T02:21:05.201Z,49
2023-05-05T02:21:39.876Z,72
2023-05-05T02:22:12.117Z,54
2023-05-05T02:22:43.735Z,64
2023-05-05T02:23:13.917Z,75
2023-05-05T02:23:47.768Z,55
2023-05-05T02:24:19.899Z,51
2023-05-05T02:24:42.582Z,28
2023-05-05T02:25:05.066Z,42
2023-05-05T02:25:40.903Z,47
2023-05-05T02:26:12.012Z,23
2023-05-05T02:26:43.998Z,40
2023-05-05T02:27:13.816Z,29
2023-05-05T02:27:47.798Z,64
2023-05-05T02:28:19.816Z,55
2023-05-05T02:28:42.518Z,49
2023-05-05T02:29:04.918Z,32
2023-05-05T02:29:39.740Z,32
2023-05-05T02:30:12.342Z,40
2023-05-05T02:30:44.109Z,54
2023-05-05T02:31:14.245Z,53
2023-05-05T02:31:47.904Z,36
2023-05-05T02:32:19.822Z,56
2023-05-05T02:32:42.507Z,37
2023-05-05T02:33:04.872Z,49
2023-05-05T02:33:40.796Z,47
2023-05-05T02:34:12.163Z,45
2023-05-05T02:34:44.227Z,39
2023-05-05T02:35:13.962Z,18
2023-05-05T02:35:47.924Z,27
2023-05-05T02:36:19.761Z,4
2023-05-05T02:36:42.467Z,4
2023-05-05T02:37:05.291Z,6
2023-05-05T02:37:39.800Z,36
2023-05-05T02:38:11.748Z,64
2023-05-05T02:38:44.811Z,46
2023-05-05T02:39:16.577Z,54
2023-05-05T02:39:47.908Z,64
2023-05-05T02:40:20.169Z,62
2023-05-05T02:40:42.948Z,74
2023-05-05T02:41:06.975Z,86
2023-05-05T02:41:40.274Z,42
2023-05-05T02:42:11.830Z,61
2023-05-05T02:42:43.867Z,22
2023-05-05T02:43:13.973Z,56
2023-05-05T02:43:47.901Z,63
2023-05-05T02:44:19.795Z,52
2023-05-05T02:44:42.485Z,61
2023-05-05T02:45:05.134Z,69
2023-05-05T02:45:39.840Z,70
2023-05-05T02:46:11.962Z,62
2023-05-05T02:46:43.905Z,56
2023-05-05T02:47:14.107Z,56
2023-05-05T02:47:47.699Z,55
2023-05-05T02:48:20.216Z,66
2023-05-05T02:48:42.865Z,55
2023-05-05T02:49:05.205Z,53
2023-05-05T02:49:39.865Z,45
2023-05-05T02:50:12.876Z,65
2023-05-05T02:50:44.358Z,50
2023-05-05T02:51:15.739Z,49
2023-05-05T02:51:47.877Z,51
2023-05-05T02:52:19.643Z,36
2023-05-05T02:52:42.587Z,53
2023-05-05T02:53:05.230Z,66
2023-05-05T02:53:40.139Z,72
2023-05-05T02:54:13.022Z,65
2023-05-05T02:54:43.814Z,64
2023-05-05T02:55:14.558Z,67
2023-05-05T02:55:48.299Z,79
2023-05-05T02:56:21.504Z,71
2023-05-05T02:56:43.994Z,68
2023-05-05T02:57:07.859Z,59
2023-05-05T02:57:40.342Z,71
2023-05-05T02:58:13.901Z,49
2023-05-05T02:58:44.761Z,27
2023-05-05T02:59:16.161Z,24
2023-05-05T02:59:48.653Z,12
2023-05-05T03:00:25.394Z,341
2023-05-05T03:00:47.752Z,331
2023-05-05T03:01:24.149Z,333
2023-05-05T03:01:46.799Z,338
2023-05-05T03:02:09.570Z,342
2023-05-05T03:02:46.333Z,351
2023-05-05T03:03:14.532Z,1
2023-05-05T03:03:53.334Z,16
2023-05-05T03:04:19.987Z,23
2023-05-05T03:04:43.427Z,23
2023-05-05T03:05:05.990Z,21
2023-05-05T03:05:39.995Z,0
2023-05-05T03:06:11.884Z,348
2023-05-05T03:06:43.661Z,348
2023-05-05T03:07:15.300Z,351
2023-05-05T03:07:49.244Z,350
2023-05-05T03:08:19.829Z,313
2023-05-05T03:08:42.807Z,309
2023-05-05T03:09:05.106Z,327
2023-05-05T03:09:39.958Z,339
2023-05-05T03:10:11.630Z,338
2023-05-05T03:10:43.747Z,326
2023-05-05T03:11:15.591Z,322
2023-05-05T03:11:47.707Z,334
2023-05-05T03:12:19.731Z,344
2023-05-05T03:12:42.752Z,345
2023-05-05T03:13:05.259Z,345
2023-05-05T03:13:39.960Z,346
2023-05-05T03:14:11.852Z,350
2023-05-05T03:14:43.972Z,350
2023-05-05T03:15:17.407Z,350
2023-05-05T03:15:47.777Z,350
2023-05-05T03:16:19.808Z,350
2023-05-05T03:16:42.697Z,346
2023-05-05T03:17:04.973Z,334
2023-05-05T03:17:39.690Z,327
2023-05-05T03:18:11.848Z,304
2023-05-05T03:18:43.617Z,314
2023-05-05T03:19:10.937Z,318
2023-05-05T03:19:49.071Z,327
2023-05-05T03:20:20.192Z,327
2023-05-05T03:20:42.620Z,327
2023-05-05T03:21:05.075Z,324
2023-05-05T03:21:39.819Z,327
2023-05-05T03:22:11.922Z,327
2023-05-05T03:22:43.721Z,332
2023-05-05T03:23:14.025Z,334
2023-05-05T03:23:47.735Z,326
2023-05-05T03:24:19.688Z,318
2023-05-05T03:24:42.378Z,318
2023-05-05T03:25:04.710Z,316
2023-05-05T03:25:39.763Z,313
2023-05-05T03:26:14.193Z,314
2023-05-05T03:26:44.452Z,313
2023-05-05T03:27:13.933Z,298
2023-05-05T03:27:48.056Z,282
2023-05-05T03:28:20.021Z,256
2023-05-05T03:28:42.776Z,252
2023-05-05T03:29:05.327Z,256
2023-05-05T03:29:40.003Z,261
2023-05-05T03:30:14.004Z,262
2023-05-05T03:30:43.828Z,262
2023-05-05T03:31:13.867Z,271
2023-05-05T03:31:47.902Z,281
2023-05-05T03:32:20.765Z,280
2023-05-05T03:32:43.503Z,288
2023-05-05T03:33:06.049Z,307
2023-05-05T03:33:40.220Z,327
2023-05-05T03:34:11.812Z,339
2023-05-05T03:34:43.957Z,1
2023-05-05T03:35:13.947Z,5
2023-05-05T03:35:47.722Z,4
2023-05-05T03:36:20.149Z,281
2023-05-05T03:36:42.409Z,264
2023-05-05T03:37:05.023Z,252
2023-05-05T03:37:39.734Z,251
2023-05-05T03:38:11.840Z,302
2023-05-05T03:38:43.763Z,322
2023-05-05T03:39:14.116Z,342
2023-05-05T03:39:47.749Z,347
2023-05-05T03:40:23.494Z,354
2023-05-05T03:40:44.538Z,4
2023-05-05T03:41:05.009Z,34
2023-05-05T03:41:40.053Z,38
2023-05-05T03:42:11.770Z,23
2023-05-05T03:42:43.690Z,27
2023-05-05T03:43:14.991Z,13
2023-05-05T03:43:47.825Z,15
2023-05-05T03:44:21.573Z,359
2023-05-05T03:44:42.476Z,243
2023-05-05T03:45:05.167Z,256
2023-05-05T03:45:39.780Z,233
2023-05-05T03:46:12.375Z,244
2023-05-05T03:46:43.841Z,233
2023-05-05T03:47:14.298Z,297
2023-05-05T03:47:47.706Z,334
2023-05-05T03:48:22.095Z,11
2023-05-05T03:48:42.510Z,16
2023-05-05T03:49:05.260Z,30
2023-05-05T03:49:40.065Z,26
2023-05-05T03:50:12.105Z,27
2023-05-05T03:50:43.716Z,30
2023-05-05T03:51:14.706Z,30
2023-05-05T03:51:48.113Z,33
2023-05-05T03:52:19.690Z,340
2023-05-05T03:52:42.452Z,329
2023-05-05T03:53:04.904Z,347
2023-05-05T03:53:40.609Z,5
2023-05-05T03:54:11.832Z,5
2023-05-05T03:54:43.784Z,6
2023-05-05T03:55:14.044Z,10
2023-05-05T03:55:48.094Z,16
2023-05-05T03:56:23.707Z,49
2023-05-05T03:56:44.502Z,62
2023-05-05T03:57:08.798Z,53
2023-05-05T03:57:40.231Z,52
2023-05-05T03:58:11.974Z,50
2023-05-05T03:58:44.228Z,52
2023-05-05T03:59:14.733Z,54
2023-05-05T03:59:48.836Z,52
2023-05-05T04:00:19.858Z,49
2023-05-05T04:00:42.491Z,48
2023-05-05T04:01:04.986Z,37
2023-05-05T04:01:40.230Z,35
2023-05-05T04:02:12.503Z,32
2023-05-05T04:02:45.682Z,32
2023-05-05T04:03:14.679Z,26
2023-05-05T04:03:48.273Z,26
2023-05-05T04:04:20.727Z,24
2023-05-05T04:04:43.062Z,24
2023-05-05T04:05:05.567Z,24
2023-05-05T04:05:40.208Z,24
2023-05-05T04:06:12.496Z,24
2023-05-05T04:06:44.121Z,24
2023-05-05T04:07:14.930Z,24
2023-05-05T04:07:48.614Z,24
2023-05-05T04:08:20.002Z,28
2023-05-05T04:08:42.384Z,28
2023-05-05T04:09:05.252Z,28
2023-05-05T04:09:40.225Z,28
2023-05-05T04:10:12.003Z,28
2023-05-05T04:10:43.984Z,29
2023-05-05T04:11:14.131Z,32
2023-05-05T04:11:47.778Z,49
2023-05-05T04:12:19.849Z,51
2023-05-05T04:12:42.828Z,49
2023-05-05T04:13:05.116Z,39
2023-05-05T04:13:42.062Z,38
2023-05-05T04:14:12.763Z,38
2023-05-05T04:14:44.105Z,39
2023-05-05T04:15:14.119Z,45
2023-05-05T04:15:48.207Z,44
2023-05-05T04:16:20.103Z,43
2023-05-05T04:16:42.766Z,44
2023-05-05T04:17:05.073Z,43
2023-05-05T04:17:39.814Z,45
2023-05-05T04:18:11.868Z,45
2023-05-05T04:18:43.619Z,40
2023-05-05T04:19:14.806Z,40
2023-05-05T04:19:48.010Z,54
2023-05-05T04:20:20.142Z,69
2023-05-05T04:20:42.974Z,66
2023-05-05T04:21:05.252Z,74
2023-05-05T04:21:39.916Z,71
2023-05-05T04:22:11.792Z,73
2023-05-05T04:22:43.924Z,75
2023-05-05T04:23:14.128Z,56
2023-05-05T04:23:48.230Z,50
2023-05-05T04:24:19.748Z,61
2023-05-05T04:24:42.454Z,65
2023-05-05T04:25:04.953Z,61
2023-05-05T04:25:39.601Z,49
2023-05-05T04:26:11.677Z,43
2023-05-05T04:26:43.953Z,43
2023-05-05T04:27:14.757Z,42
2023-05-05T04:27:47.995Z,40
2023-05-05T04:28:21.592Z,38
2023-05-05T04:28:42.921Z,34
2023-05-05T04:29:05.818Z,35
2023-05-05T04:29:39.715Z,32
2023-05-05T04:30:11.847Z,22
2023-05-05T04:30:43.850Z,21
2023-05-05T04:31:14.007Z,21
2023-05-05T04:31:48.069Z,23
2023-05-05T04:32:19.824Z,24
2023-05-05T04:32:42.585Z,27
2023-05-05T04:33:05.018Z,34
2023-05-05T04:33:40.177Z,33
2023-05-05T04:34:12.647Z,32
2023-05-05T04:34:43.806Z,31
2023-05-05T04:35:14.474Z,68
2023-05-05T04:35:48.112Z,52
2023-05-05T04:36:19.814Z,40
2023-05-05T04:36:42.568Z,38
2023-05-05T04:37:05.195Z,38
2023-05-05T04:37:40.327Z,38
2023-05-05T04:38:11.715Z,31
2023-05-05T04:38:44.025Z,49
2023-05-05T04:39:13.874Z,49
2023-05-05T04:39:47.706Z,35
2023-05-05T04:40:19.715Z,40
2023-05-05T04:40:42.492Z,54
2023-05-05T04:41:05.284Z,59
2023-05-05T04:41:39.713Z,51
2023-05-05T04:42:11.790Z,42
2023-05-05T04:42:43.918Z,38
2023-05-05T04:43:14.221Z,30
2023-05-05T04:43:47.807Z,274
2023-05-05T04:44:19.785Z,265
2023-05-05T04:44:42.501Z,265
2023-05-05T04:45:05.061Z,262
2023-05-05T04:45:39.894Z,348
2023-05-05T04:46:12.255Z,56
2023-05-05T04:46:44.325Z,51
2023-05-05T04:47:14.818Z,51
2023-05-05T04:47:47.861Z,68
2023-05-05T04:48:19.617Z,57
2023-05-05T04:48:42.336Z,63
2023-05-05T04:49:04.697Z,60
2023-05-05T04:49:39.774Z,56
2023-05-05T04:50:11.849Z,49
2023-05-05T04:50:43.592Z,31
2023-05-05T04:51:14.054Z,348
2023-05-05T04:51:47.807Z,352
2023-05-05T04:52:20.864Z,359
2023-05-05T04:52:43.230Z,3
2023-05-05T04:53:06.197Z,3
2023-05-05T04:53:39.821Z,9
2023-05-05T04:54:11.804Z,30
2023-05-05T04:54:43.771Z,55
2023-05-05T04:55:13.998Z,44
2023-05-05T04:55:47.910Z,34
2023-05-05T04:56:20.006Z,353
2023-05-05T04:56:42.734Z,356
2023-05-05T04:57:06.251Z,354
2023-05-05T04:57:39.812Z,4
2023-05-05T04:58:12.382Z,21
2023-05-05T04:58:44.554Z,23
2023-05-05T04:59:19.731Z,17
2023-05-05T04:59:48.418Z,31
2023-05-05T05:00:22.853Z,9
2023-05-05T05:00:43.875Z,307
2023-05-05T05:01:06.577Z,338
2023-05-05T05:01:41.014Z,8
2023-05-05T05:02:12.401Z,23
2023-05-05T05:02:44.491Z,25
2023-05-05T05:03:14.690Z,25
2023-05-05T05:03:48.426Z,25
2023-05-05T05:04:20.574Z,25
2023-05-05T05:04:43.321Z,25
2023-05-05T05:05:06.060Z,44
2023-05-05T05:05:39.927Z,49
2023-05-05T05:06:12.785Z,38
2023-05-05T05:06:44.649Z,49
2023-05-05T05:07:14.771Z,49
2023-05-05T05:07:48.562Z,33
2023-05-05T05:08:20.288Z,35
2023-05-05T05:08:42.833Z,33
2023-05-05T05:09:07.028Z,37
2023-05-05T05:09:40.779Z,31
2023-05-05T05:10:12.239Z,40
2023-05-05T05:10:43.873Z,42
2023-05-05T05:11:15.419Z,66
2023-05-05T05:11:48.710Z,47
2023-05-05T05:12:20.017Z,40
2023-05-05T05:12:42.635Z,68
2023-05-05T05:13:06.784Z,62
2023-05-05T05:13:39.960Z,80
2023-05-05T05:14:12.703Z,63
2023-05-05T05:14:43.897Z,55
2023-05-05T05:15:14.858Z,72
2023-05-05T05:15:47.729Z,57
2023-05-05T05:16:19.854Z,68
2023-05-05T05:16:42.495Z,79
2023-05-05T05:17:05.322Z,76
2023-05-05T05:17:40.964Z,94
2023-05-05T05:18:11.575Z,96
2023-05-05T05:18:43.638Z,84
2023-05-05T05:19:14.735Z,70
2023-05-05T05:19:48.072Z,62
2023-05-05T05:20:20.218Z,64
2023-05-05T05:20:42.642Z,66
2023-05-05T05:21:05.109Z,71
2023-05-05T05:21:39.806Z,73
2023-05-05T05:22:11.780Z,72
2023-05-05T05:22:43.596Z,62
2023-05-05T05:23:14.211Z,36
2023-05-05T05:23:48.365Z,233
2023-05-05T05:24:20.560Z,247
2023-05-05T05:24:43.210Z,251
2023-05-05T05:25:05.517Z,243
2023-05-05T05:25:40.825Z,239
2023-05-05T05:26:12.157Z,225
2023-05-05T05:26:43.784Z,312
2023-05-05T05:27:13.919Z,0
2023-05-05T05:27:55.278Z,347
2023-05-05T05:28:19.775Z,322
2023-05-05T05:28:42.514Z,307
2023-05-05T05:29:05.237Z,323
2023-05-05T05:29:39.773Z,335
2023-05-05T05:30:11.852Z,335
2023-05-05T05:30:44.937Z,297
2023-05-05T05:31:15.101Z,341
2023-05-05T05:31:48.044Z,2
2023-05-05T05:32:19.758Z,343
2023-05-05T05:32:42.470Z,316
2023-05-05T05:33:04.857Z,358
2023-05-05T05:33:41.649Z,16
2023-05-05T05:34:12.948Z,359
2023-05-05T05:34:44.761Z,0
2023-05-05T05:35:14.065Z,358
2023-05-05T05:35:47.850Z,351
2023-05-05T05:36:19.662Z,318
2023-05-05T05:36:42.390Z,339
2023-05-05T05:37:04.786Z,355
2023-05-05T05:37:40.004Z,355
2023-05-05T05:38:11.805Z,358
2023-05-05T05:38:43.562Z,14
2023-05-05T05:39:14.235Z,16
2023-05-05T05:39:47.888Z,16
2023-05-05T05:40:19.875Z,16
2023-05-05T05:40:42.677Z,17
2023-05-05T05:41:05.157Z,23
2023-05-05T05:41:40.053Z,17
2023-05-05T05:42:11.631Z,42
2023-05-05T05:42:43.666Z,31
2023-05-05T05:43:14.124Z,35
2023-05-05T05:43:47.702Z,47
2023-05-05T05:44:19.624Z,42
2023-05-05T05:44:42.360Z,39
2023-05-05T05:45:05.505Z,33
2023-05-05T05:45:39.677Z,33
2023-05-05T05:46:11.801Z,65
2023-05-05T05:46:43.689Z,46
2023-05-05T05:47:14.461Z,42
2023-05-05T05:47:47.687Z,34
2023-05-05T05:48:19.944Z,34
2023-05-05T05:48:42.587Z,37
2023-05-05T05:49:05.195Z,95
2023-05-05T05:49:39.863Z,100
2023-05-05T05:50:11.593Z,89
2023-05-05T05:50:44.006Z,92
2023-05-05T05:51:14.690Z,112
2023-05-05T05:51:48.157Z,99
2023-05-05T05:52:21.335Z,98
2023-05-05T05:52:42.638Z,121
2023-05-05T05:53:05.598Z,155
2023-05-05T05:53:40.414Z,44
2023-05-05T05:54:11.757Z,31
2023-05-05T05:54:43.771Z,42
2023-05-05T05:55:14.334Z,77
2023-05-05T05:55:47.882Z,112
2023-05-05T05:56:20.011Z,37
2023-05-05T05:56:42.847Z,33
2023-05-05T05:57:05.559Z,27
2023-05-05T05:57:41.802Z,62
2023-05-05T05:58:11.928Z,125
2023-05-05T05:58:44.085Z,145
2023-05-05T05:59:14.265Z,117
2023-05-05T05:59:48.560Z,165
2023-05-05T06:00:32.830Z,201
2023-05-05T06:00:43.091Z,253
2023-05-05T06:01:05.844Z,139
2023-05-05T06:01:43.419Z,167
2023-05-05T06:02:05.769Z,153
2023-05-05T06:02:43.871Z,197
2023-05-05T06:03:14.421Z,117
2023-05-05T06:03:47.921Z,120
2023-05-05T06:04:19.078Z,166
2023-05-05T06:04:46.176Z,161
2023-05-05T06:05:24.171Z,166
2023-05-05T06:05:47.785Z,155
2023-05-05T06:06:09.846Z,147
2023-05-05T06:06:43.907Z,167
2023-05-05T06:07:14.166Z,123
2023-05-05T06:07:47.592Z,152
2023-05-05T06:08:19.769Z,144
2023-05-05T06:08:42.440Z,194
2023-05-05T06:09:04.962Z,110
2023-05-05T06:09:41.808Z,117
2023-05-05T06:10:26.389Z,140
2023-05-05T06:10:43.748Z,174
2023-05-05T06:11:14.065Z,152
2023-05-05T06:11:47.556Z,155
2023-05-05T06:12:19.707Z,149
2023-05-05T06:12:43.316Z,116
2023-05-05T06:13:07.966Z,176
2023-05-05T06:13:40.022Z,100
2023-05-05T06:14:11.826Z,115
2023-05-05T06:14:43.773Z,140
2023-05-05T06:15:14.174Z,122
2023-05-05T06:15:47.541Z,128
2023-05-05T06:16:19.639Z,161
2023-05-05T06:16:43.106Z,79
2023-05-05T06:17:04.640Z,150
2023-05-05T06:17:39.670Z,180
2023-05-05T06:18:11.598Z,133
2023-05-05T06:18:43.669Z,137
2023-05-05T06:19:14.478Z,145
2023-05-05T06:19:55.991Z,109
2023-05-05T06:20:18.352Z,160
2023-05-05T06:20:40.770Z,149
2023-05-05T06:21:03.689Z,150
2023-05-05T06:21:40.472Z,169
2023-05-05T06:22:12.107Z,126
2023-05-05T06:22:44.104Z,114
2023-05-05T06:23:15.942Z,162
2023-05-05T06:23:48.041Z,152
2023-05-05T06:24:19.819Z,124
2023-05-05T06:24:44.317Z,91
2023-05-05T06:25:04.991Z,119
2023-05-05T06:25:39.893Z,128
2023-05-05T06:26:11.841Z,99
2023-05-05T06:26:45.323Z,151
2023-05-05T06:27:14.329Z,158
2023-05-05T06:27:48.873Z,159
2023-05-05T06:28:19.738Z,97
2023-05-05T06:28:44.925Z,142
2023-05-05T06:29:05.540Z,142
2023-05-05T06:29:39.674Z,99
2023-05-05T06:30:12.410Z,123
2023-05-05T06:30:45.275Z,126
2023-05-05T06:31:15.411Z,174
2023-05-05T06:31:47.890Z,163
2023-05-05T06:32:19.835Z,141
2023-05-05T06:32:42.520Z,94
2023-05-05T06:33:04.948Z,202
2023-05-05T06:33:40.179Z,145
2023-05-05T06:34:11.774Z,158
2023-05-05T06:34:46.062Z,186
2023-05-05T06:35:14.116Z,124
2023-05-05T06:35:47.725Z,44
2023-05-05T06:36:20.129Z,167
2023-05-05T06:36:42.544Z,163
2023-05-05T06:37:05.238Z,172
2023-05-05T06:37:39.992Z,141
2023-05-05T06:38:12.735Z,92
2023-05-05T06:38:43.923Z,175
2023-05-05T06:39:16.062Z,137
2023-05-05T06:39:47.705Z,135
2023-05-05T06:40:19.815Z,110
2023-05-05T06:40:42.533Z,167
2023-05-05T06:41:04.990Z,191
2023-05-05T06:41:39.882Z,181
2023-05-05T06:42:12.066Z,173
2023-05-05T06:42:43.755Z,157
2023-05-05T06:43:15.414Z,203
2023-05-05T06:43:48.109Z,147
2023-05-05T06:44:19.787Z,149
2023-05-05T06:44:42.595Z,134
2023-05-05T06:45:05.389Z,105
2023-05-05T06:45:39.660Z,315
2023-05-05T06:46:11.726Z,18
2023-05-05T06:46:43.904Z,141
2023-05-05T06:47:14.701Z,72
2023-05-05T06:47:48.316Z,307
2023-05-05T06:48:20.269Z,274
2023-05-05T06:48:43.133Z,299
2023-05-05T06:49:05.853Z,232
2023-05-05T06:49:39.845Z,231
2023-05-05T06:50:11.639Z,265
2023-05-05T06:50:43.708Z,221
2023-05-05T06:51:14.266Z,272
2023-05-05T06:51:49.267Z,235
2023-05-05T06:52:20.147Z,227
2023-05-05T06:52:42.795Z,239
2023-05-05T06:53:05.308Z,255
2023-05-05T06:53:39.597Z,169
2023-05-05T06:54:12.437Z,295
2023-05-05T06:54:43.724Z,267
2023-05-05T06:55:14.302Z,256
2023-05-05T06:55:49.907Z,271
2023-05-05T06:56:20.362Z,237
2023-05-05T06:56:43.086Z,237
2023-05-05T06:57:06.478Z,245
2023-05-05T06:57:39.715Z,276
2023-05-05T06:58:12.178Z,250
2023-05-05T06:58:44.180Z,341
2023-05-05T06:59:14.132Z,249
2023-05-05T06:59:50.520Z,95
2023-05-05T07:00:20.037Z,210
2023-05-05T07:00:45.087Z,256
2023-05-05T07:01:05.639Z,232
2023-05-05T07:01:40.001Z,255
2023-05-05T07:02:15.247Z,255
2023-05-05T07:02:44.045Z,352
2023-05-05T07:03:19.936Z,253
2023-05-05T07:03:42.444Z,252
2023-05-05T07:04:16.703Z,49
2023-05-05T07:04:45.900Z,229